sensor_id;sensor_type;location;lat;lon;timestamp;P1;durP1;ratioP1;P2;durP2;ratioP2
45322;SDS011;31382;50.200;8.674;2024-02-28T00:02:53;18.73;;;9.70;;
45322;SDS011;31382;50.200;8.674;2024-02-28T00:07:54;18.15;;;8.25;;
45322;SDS011;31382;50.200;8.674;2024-02-28T00:12:56;17.45;;;8.85;;
45322;SDS011;31382;50.200;8.674;2024-02-28T00:17:57;20.60;;;9.48;;
45322;SDS011;31382;50.200;8.674;2024-02-28T00:22:59;18.33;;;8.38;;
45322;SDS011;31382;50.200;8.674;2024-02-28T00:28:00;20.13;;;9.85;;
45322;SDS011;31382;50.200;8.674;2024-02-28T00:33:01;18.80;;;9.35;;
45322;SDS011;31382;50.200;8.674;2024-02-28T00:38:03;18.70;;;8.60;;
45322;SDS011;31382;50.200;8.674;2024-02-28T00:43:05;23.02;;;10.95;;
45322;SDS011;31382;50.200;8.674;2024-02-28T00:48:06;22.27;;;10.55;;
45322;SDS011;31382;50.200;8.674;2024-02-28T00:53:08;23.05;;;10.27;;
45322;SDS011;31382;50.200;8.674;2024-02-28T00:58:10;20.15;;;10.00;;
45322;SDS011;31382;50.200;8.674;2024-02-28T01:03:11;16.85;;;8.52;;
45322;SDS011;31382;50.200;8.674;2024-02-28T01:08:15;19.48;;;9.60;;
45322;SDS011;31382;50.200;8.674;2024-02-28T01:13:18;23.02;;;11.35;;
45322;SDS011;31382;50.200;8.674;2024-02-28T01:18:20;22.77;;;10.25;;
45322;SDS011;31382;50.200;8.674;2024-02-28T01:23:21;22.25;;;10.35;;
45322;SDS011;31382;50.200;8.674;2024-02-28T01:28:23;20.83;;;9.70;;
45322;SDS011;31382;50.200;8.674;2024-02-28T01:33:24;20.52;;;9.82;;
45322;SDS011;31382;50.200;8.674;2024-02-28T01:38:26;25.60;;;9.90;;
45322;SDS011;31382;50.200;8.674;2024-02-28T01:43:28;21.65;;;9.65;;
45322;SDS011;31382;50.200;8.674;2024-02-28T01:48:29;23.85;;;10.52;;
45322;SDS011;31382;50.200;8.674;2024-02-28T01:53:31;19.92;;;9.50;;
45322;SDS011;31382;50.200;8.674;2024-02-28T01:58:32;22.83;;;9.40;;
45322;SDS011;31382;50.200;8.674;2024-02-28T02:03:34;18.85;;;9.48;;
45322;SDS011;31382;50.200;8.674;2024-02-28T02:08:36;19.92;;;9.32;;
45322;SDS011;31382;50.200;8.674;2024-02-28T02:13:47;17.98;;;8.75;;
45322;SDS011;31382;50.200;8.674;2024-02-28T02:18:50;20.30;;;9.60;;
45322;SDS011;31382;50.200;8.674;2024-02-28T02:23:52;20.70;;;9.15;;
45322;SDS011;31382;50.200;8.674;2024-02-28T02:28:53;22.17;;;8.18;;
45322;SDS011;31382;50.200;8.674;2024-02-28T02:33:55;22.50;;;9.93;;
45322;SDS011;31382;50.200;8.674;2024-02-28T02:38:57;21.67;;;9.07;;
45322;SDS011;31382;50.200;8.674;2024-02-28T02:43:59;22.02;;;9.38;;
45322;SDS011;31382;50.200;8.674;2024-02-28T02:49:00;20.17;;;8.65;;
45322;SDS011;31382;50.200;8.674;2024-02-28T02:54:02;21.70;;;8.70;;
45322;SDS011;31382;50.200;8.674;2024-02-28T02:59:03;22.55;;;9.30;;
45322;SDS011;31382;50.200;8.674;2024-02-28T03:04:05;21.27;;;9.32;;
45322;SDS011;31382;50.200;8.674;2024-02-28T03:09:06;19.70;;;8.60;;
45322;SDS011;31382;50.200;8.674;2024-02-28T03:14:08;23.88;;;10.02;;
45322;SDS011;31382;50.200;8.674;2024-02-28T03:19:10;23.58;;;10.75;;
45322;SDS011;31382;50.200;8.674;2024-02-28T03:24:12;22.20;;;9.95;;
45322;SDS011;31382;50.200;8.674;2024-02-28T03:29:13;23.17;;;9.20;;
45322;SDS011;31382;50.200;8.674;2024-02-28T03:34:15;23.35;;;10.70;;
45322;SDS011;31382;50.200;8.674;2024-02-28T03:39:16;27.02;;;11.50;;
45322;SDS011;31382;50.200;8.674;2024-02-28T03:44:18;23.75;;;9.65;;
45322;SDS011;31382;50.200;8.674;2024-02-28T03:49:20;25.92;;;11.27;;
45322;SDS011;31382;50.200;8.674;2024-02-28T03:54:21;26.42;;;10.40;;
45322;SDS011;31382;50.200;8.674;2024-02-28T03:59:23;27.67;;;11.07;;
45322;SDS011;31382;50.200;8.674;2024-02-28T04:04:25;32.58;;;11.75;;
45322;SDS011;31382;50.200;8.674;2024-02-28T04:09:26;26.00;;;12.43;;
45322;SDS011;31382;50.200;8.674;2024-02-28T04:14:27;32.28;;;13.30;;
45322;SDS011;31382;50.200;8.674;2024-02-28T04:19:32;32.97;;;13.70;;
45322;SDS011;31382;50.200;8.674;2024-02-28T04:24:35;32.20;;;12.95;;
45322;SDS011;31382;50.200;8.674;2024-02-28T04:29:36;35.10;;;12.70;;
45322;SDS011;31382;50.200;8.674;2024-02-28T04:34:38;26.23;;;11.60;;
45322;SDS011;31382;50.200;8.674;2024-02-28T04:39:39;30.83;;;12.38;;
45322;SDS011;31382;50.200;8.674;2024-02-28T04:44:42;34.55;;;12.32;;
45322;SDS011;31382;50.200;8.674;2024-02-28T04:49:43;31.08;;;12.57;;
45322;SDS011;31382;50.200;8.674;2024-02-28T04:54:45;34.38;;;12.40;;
45322;SDS011;31382;50.200;8.674;2024-02-28T04:59:46;35.17;;;13.50;;
45322;SDS011;31382;50.200;8.674;2024-02-28T05:04:48;38.85;;;14.65;;
45322;SDS011;31382;50.200;8.674;2024-02-28T05:09:50;38.47;;;14.73;;
45322;SDS011;31382;50.200;8.674;2024-02-28T05:14:51;36.00;;;12.90;;
45322;SDS011;31382;50.200;8.674;2024-02-28T05:19:55;34.42;;;14.10;;
45322;SDS011;31382;50.200;8.674;2024-02-28T05:24:58;37.95;;;13.38;;
45322;SDS011;31382;50.200;8.674;2024-02-28T05:30:00;35.78;;;13.77;;
45322;SDS011;31382;50.200;8.674;2024-02-28T05:35:02;35.15;;;14.00;;
45322;SDS011;31382;50.200;8.674;2024-02-28T05:40:06;43.75;;;14.00;;
45322;SDS011;31382;50.200;8.674;2024-02-28T05:45:08;34.60;;;13.85;;
45322;SDS011;31382;50.200;8.674;2024-02-28T05:50:09;39.30;;;14.35;;
45322;SDS011;31382;50.200;8.674;2024-02-28T05:55:11;40.33;;;14.27;;
45322;SDS011;31382;50.200;8.674;2024-02-28T06:00:13;32.28;;;13.57;;
45322;SDS011;31382;50.200;8.674;2024-02-28T06:05:15;32.42;;;13.25;;
45322;SDS011;31382;50.200;8.674;2024-02-28T06:10:16;28.83;;;12.77;;
45322;SDS011;31382;50.200;8.674;2024-02-28T06:15:18;32.80;;;13.25;;
45322;SDS011;31382;50.200;8.674;2024-02-28T06:20:20;36.10;;;13.25;;
45322;SDS011;31382;50.200;8.674;2024-02-28T06:25:21;31.70;;;10.77;;
45322;SDS011;31382;50.200;8.674;2024-02-28T06:30:25;34.70;;;13.15;;
45322;SDS011;31382;50.200;8.674;2024-02-28T06:35:26;34.25;;;12.38;;
45322;SDS011;31382;50.200;8.674;2024-02-28T06:40:28;25.75;;;10.88;;
45322;SDS011;31382;50.200;8.674;2024-02-28T06:45:33;29.42;;;11.48;;
45322;SDS011;31382;50.200;8.674;2024-02-28T06:50:35;27.65;;;10.85;;
45322;SDS011;31382;50.200;8.674;2024-02-28T06:55:36;35.03;;;14.57;;
45322;SDS011;31382;50.200;8.674;2024-02-28T07:00:38;30.92;;;12.63;;
45322;SDS011;31382;50.200;8.674;2024-02-28T07:05:39;38.35;;;15.45;;
45322;SDS011;31382;50.200;8.674;2024-02-28T07:10:40;38.55;;;14.75;;
45322;SDS011;31382;50.200;8.674;2024-02-28T07:15:44;39.22;;;16.38;;
45322;SDS011;31382;50.200;8.674;2024-02-28T07:20:46;40.90;;;15.73;;
45322;SDS011;31382;50.200;8.674;2024-02-28T07:25:47;31.58;;;13.82;;
45322;SDS011;31382;50.200;8.674;2024-02-28T07:30:49;34.00;;;12.82;;
45322;SDS011;31382;50.200;8.674;2024-02-28T07:35:52;36.53;;;13.82;;
45322;SDS011;31382;50.200;8.674;2024-02-28T07:40:53;41.70;;;16.35;;
45322;SDS011;31382;50.200;8.674;2024-02-28T07:45:55;50.70;;;17.10;;
45322;SDS011;31382;50.200;8.674;2024-02-28T07:50:56;40.25;;;15.85;;
45322;SDS011;31382;50.200;8.674;2024-02-28T07:55:58;33.97;;;13.73;;
45322;SDS011;31382;50.200;8.674;2024-02-28T08:00:59;44.47;;;11.23;;
45322;SDS011;31382;50.200;8.674;2024-02-28T08:06:01;26.75;;;11.45;;
45322;SDS011;31382;50.200;8.674;2024-02-28T08:11:02;27.83;;;10.25;;
45322;SDS011;31382;50.200;8.674;2024-02-28T08:16:04;36.10;;;12.15;;
45322;SDS011;31382;50.200;8.674;2024-02-28T08:21:08;31.17;;;12.05;;
45322;SDS011;31382;50.200;8.674;2024-02-28T08:26:10;32.65;;;12.10;;
45322;SDS011;31382;50.200;8.674;2024-02-28T08:31:12;37.75;;;11.05;;
45322;SDS011;31382;50.200;8.674;2024-02-28T08:36:13;21.42;;;9.55;;
45322;SDS011;31382;50.200;8.674;2024-02-28T08:41:16;25.23;;;10.40;;
45322;SDS011;31382;50.200;8.674;2024-02-28T08:46:18;29.05;;;11.27;;
45322;SDS011;31382;50.200;8.674;2024-02-28T08:51:19;21.27;;;9.63;;
45322;SDS011;31382;50.200;8.674;2024-02-28T08:56:21;23.08;;;11.25;;
45322;SDS011;31382;50.200;8.674;2024-02-28T09:01:22;24.60;;;10.75;;
45322;SDS011;31382;50.200;8.674;2024-02-28T09:06:24;17.80;;;9.20;;
45322;SDS011;31382;50.200;8.674;2024-02-28T09:11:26;22.13;;;10.43;;
45322;SDS011;31382;50.200;8.674;2024-02-28T09:16:27;21.25;;;9.77;;
45322;SDS011;31382;50.200;8.674;2024-02-28T09:21:30;25.98;;;11.32;;
45322;SDS011;31382;50.200;8.674;2024-02-28T09:26:31;21.65;;;9.70;;
45322;SDS011;31382;50.200;8.674;2024-02-28T09:31:33;23.70;;;9.85;;
45322;SDS011;31382;50.200;8.674;2024-02-28T09:36:43;25.40;;;10.77;;
45322;SDS011;31382;50.200;8.674;2024-02-28T09:41:51;20.25;;;9.68;;
45322;SDS011;31382;50.200;8.674;2024-02-28T09:46:53;22.42;;;9.02;;
45322;SDS011;31382;50.200;8.674;2024-02-28T09:51:55;22.73;;;10.13;;
45322;SDS011;31382;50.200;8.674;2024-02-28T09:56:58;25.30;;;9.80;;
45322;SDS011;31382;50.200;8.674;2024-02-28T10:02:00;23.40;;;10.90;;
45322;SDS011;31382;50.200;8.674;2024-02-28T10:07:11;24.65;;;11.18;;
45322;SDS011;31382;50.200;8.674;2024-02-28T10:12:16;23.10;;;10.23;;
45322;SDS011;31382;50.200;8.674;2024-02-28T10:17:17;23.10;;;9.98;;
45322;SDS011;31382;50.200;8.674;2024-02-28T10:22:19;19.40;;;8.95;;
45322;SDS011;31382;50.200;8.674;2024-02-28T10:27:20;26.73;;;10.75;;
45322;SDS011;31382;50.200;8.674;2024-02-28T10:32:22;23.95;;;10.30;;
45322;SDS011;31382;50.200;8.674;2024-02-28T10:37:23;24.13;;;9.93;;
45322;SDS011;31382;50.200;8.674;2024-02-28T10:42:25;21.98;;;10.57;;
45322;SDS011;31382;50.200;8.674;2024-02-28T10:47:28;23.02;;;11.38;;
45322;SDS011;31382;50.200;8.674;2024-02-28T10:52:32;25.05;;;11.27;;
45322;SDS011;31382;50.200;8.674;2024-02-28T10:57:36;23.98;;;11.38;;
45322;SDS011;31382;50.200;8.674;2024-02-28T11:02:37;22.05;;;10.13;;
45322;SDS011;31382;50.200;8.674;2024-02-28T11:07:40;24.02;;;10.68;;
45322;SDS011;31382;50.200;8.674;2024-02-28T11:12:43;22.92;;;10.68;;
45322;SDS011;31382;50.200;8.674;2024-02-28T11:18:06;24.90;;;11.07;;
45322;SDS011;31382;50.200;8.674;2024-02-28T11:23:09;24.73;;;11.57;;
45322;SDS011;31382;50.200;8.674;2024-02-28T11:28:10;24.95;;;10.48;;
45322;SDS011;31382;50.200;8.674;2024-02-28T11:33:12;20.50;;;10.32;;
45322;SDS011;31382;50.200;8.674;2024-02-28T11:38:14;22.92;;;9.82;;
45322;SDS011;31382;50.200;8.674;2024-02-28T11:43:16;22.95;;;10.27;;
45322;SDS011;31382;50.200;8.674;2024-02-28T11:48:20;18.00;;;9.23;;
45322;SDS011;31382;50.200;8.674;2024-02-28T11:53:22;19.95;;;9.98;;
45322;SDS011;31382;50.200;8.674;2024-02-28T11:58:27;21.45;;;10.63;;
45322;SDS011;31382;50.200;8.674;2024-02-28T12:03:29;21.30;;;9.55;;
45322;SDS011;31382;50.200;8.674;2024-02-28T12:08:30;20.42;;;10.30;;
45322;SDS011;31382;50.200;8.674;2024-02-28T12:13:32;20.42;;;11.05;;
45322;SDS011;31382;50.200;8.674;2024-02-28T12:18:33;18.95;;;10.18;;
45322;SDS011;31382;50.200;8.674;2024-02-28T12:23:36;18.67;;;11.07;;
45322;SDS011;31382;50.200;8.674;2024-02-28T12:28:37;21.40;;;10.57;;
45322;SDS011;31382;50.200;8.674;2024-02-28T12:33:39;22.15;;;11.35;;
45322;SDS011;31382;50.200;8.674;2024-02-28T12:38:41;20.23;;;11.18;;
45322;SDS011;31382;50.200;8.674;2024-02-28T12:43:42;21.30;;;10.93;;
45322;SDS011;31382;50.200;8.674;2024-02-28T12:48:44;24.08;;;10.98;;
45322;SDS011;31382;50.200;8.674;2024-02-28T12:53:48;20.00;;;10.65;;
45322;SDS011;31382;50.200;8.674;2024-02-28T12:58:52;22.20;;;11.90;;
45322;SDS011;31382;50.200;8.674;2024-02-28T13:03:54;20.52;;;9.75;;
45322;SDS011;31382;50.200;8.674;2024-02-28T13:08:56;24.58;;;11.38;;
45322;SDS011;31382;50.200;8.674;2024-02-28T13:13:57;19.92;;;11.25;;
45322;SDS011;31382;50.200;8.674;2024-02-28T13:18:59;22.17;;;12.05;;
45322;SDS011;31382;50.200;8.674;2024-02-28T13:24:01;22.33;;;12.00;;
45322;SDS011;31382;50.200;8.674;2024-02-28T13:29:02;21.73;;;11.80;;
45322;SDS011;31382;50.200;8.674;2024-02-28T13:34:03;20.15;;;11.65;;
45322;SDS011;31382;50.200;8.674;2024-02-28T13:39:05;17.27;;;10.57;;
45322;SDS011;31382;50.200;8.674;2024-02-28T13:44:07;19.13;;;11.57;;
45322;SDS011;31382;50.200;8.674;2024-02-28T13:49:10;19.17;;;10.68;;
45322;SDS011;31382;50.200;8.674;2024-02-28T13:54:12;16.90;;;11.48;;
45322;SDS011;31382;50.200;8.674;2024-02-28T13:59:13;20.15;;;11.50;;
45322;SDS011;31382;50.200;8.674;2024-02-28T14:04:15;14.85;;;10.90;;
45322;SDS011;31382;50.200;8.674;2024-02-28T14:09:16;16.27;;;10.68;;
45322;SDS011;31382;50.200;8.674;2024-02-28T14:14:18;16.63;;;10.60;;
45322;SDS011;31382;50.200;8.674;2024-02-28T14:19:19;17.58;;;10.90;;
45322;SDS011;31382;50.200;8.674;2024-02-28T14:24:20;14.68;;;9.93;;
45322;SDS011;31382;50.200;8.674;2024-02-28T14:29:22;17.15;;;10.55;;
45322;SDS011;31382;50.200;8.674;2024-02-28T14:34:23;16.15;;;10.02;;
45322;SDS011;31382;50.200;8.674;2024-02-28T14:39:25;15.75;;;10.32;;
45322;SDS011;31382;50.200;8.674;2024-02-28T14:44:26;15.18;;;10.10;;
45322;SDS011;31382;50.200;8.674;2024-02-28T14:49:28;14.65;;;9.13;;
45322;SDS011;31382;50.200;8.674;2024-02-28T14:54:29;16.00;;;9.73;;
45322;SDS011;31382;50.200;8.674;2024-02-28T14:59:31;15.52;;;9.20;;
45322;SDS011;31382;50.200;8.674;2024-02-28T15:04:33;15.93;;;9.80;;
45322;SDS011;31382;50.200;8.674;2024-02-28T15:09:34;16.15;;;8.82;;
45322;SDS011;31382;50.200;8.674;2024-02-28T15:14:40;15.68;;;8.90;;
45322;SDS011;31382;50.200;8.674;2024-02-28T15:19:41;17.50;;;8.15;;
45322;SDS011;31382;50.200;8.674;2024-02-28T15:24:42;15.48;;;8.10;;
45322;SDS011;31382;50.200;8.674;2024-02-28T15:29:44;17.50;;;8.60;;
45322;SDS011;31382;50.200;8.674;2024-02-28T15:34:45;17.73;;;10.52;;
45322;SDS011;31382;50.200;8.674;2024-02-28T15:39:47;18.48;;;9.05;;
45322;SDS011;31382;50.200;8.674;2024-02-28T15:44:50;13.23;;;8.25;;
45322;SDS011;31382;50.200;8.674;2024-02-28T15:49:51;20.13;;;9.18;;
45322;SDS011;31382;50.200;8.674;2024-02-28T15:54:53;16.30;;;8.48;;
45322;SDS011;31382;50.200;8.674;2024-02-28T15:59:54;14.77;;;8.02;;
45322;SDS011;31382;50.200;8.674;2024-02-28T16:04:56;16.70;;;8.07;;
45322;SDS011;31382;50.200;8.674;2024-02-28T16:09:58;14.23;;;7.85;;
45322;SDS011;31382;50.200;8.674;2024-02-28T16:14:59;18.60;;;9.02;;
45322;SDS011;31382;50.200;8.674;2024-02-28T16:20:01;19.95;;;9.40;;
45322;SDS011;31382;50.200;8.674;2024-02-28T16:25:04;18.85;;;8.13;;
45322;SDS011;31382;50.200;8.674;2024-02-28T16:30:06;13.55;;;7.60;;
45322;SDS011;31382;50.200;8.674;2024-02-28T16:35:09;18.13;;;8.98;;
45322;SDS011;31382;50.200;8.674;2024-02-28T16:40:11;18.50;;;8.40;;
45322;SDS011;31382;50.200;8.674;2024-02-28T16:45:12;18.20;;;8.85;;
45322;SDS011;31382;50.200;8.674;2024-02-28T16:50:14;17.42;;;7.93;;
45322;SDS011;31382;50.200;8.674;2024-02-28T16:55:15;20.38;;;9.00;;
45322;SDS011;31382;50.200;8.674;2024-02-28T17:00:17;19.48;;;8.80;;
45322;SDS011;31382;50.200;8.674;2024-02-28T17:05:20;18.10;;;8.73;;
45322;SDS011;31382;50.200;8.674;2024-02-28T17:10:22;21.23;;;8.73;;
45322;SDS011;31382;50.200;8.674;2024-02-28T17:15:23;22.08;;;9.70;;
45322;SDS011;31382;50.200;8.674;2024-02-28T17:20:24;18.42;;;8.88;;
45322;SDS011;31382;50.200;8.674;2024-02-28T17:25:27;23.50;;;10.48;;
45322;SDS011;31382;50.200;8.674;2024-02-28T17:30:29;16.88;;;8.73;;
45322;SDS011;31382;50.200;8.674;2024-02-28T17:35:30;22.70;;;9.30;;
45322;SDS011;31382;50.200;8.674;2024-02-28T17:40:32;19.50;;;9.15;;
45322;SDS011;31382;50.200;8.674;2024-02-28T17:45:34;31.00;;;13.05;;
45322;SDS011;31382;50.200;8.674;2024-02-28T17:50:36;29.40;;;14.23;;
45322;SDS011;31382;50.200;8.674;2024-02-28T17:55:39;26.77;;;12.02;;
45322;SDS011;31382;50.200;8.674;2024-02-28T18:00:40;23.33;;;9.85;;
45322;SDS011;31382;50.200;8.674;2024-02-28T18:05:42;20.70;;;9.60;;
45322;SDS011;31382;50.200;8.674;2024-02-28T18:10:43;21.65;;;9.82;;
45322;SDS011;31382;50.200;8.674;2024-02-28T18:15:45;19.27;;;9.13;;
45322;SDS011;31382;50.200;8.674;2024-02-28T18:20:46;25.65;;;11.73;;
45322;SDS011;31382;50.200;8.674;2024-02-28T18:25:48;20.83;;;9.38;;
45322;SDS011;31382;50.200;8.674;2024-02-28T18:30:49;22.15;;;9.23;;
45322;SDS011;31382;50.200;8.674;2024-02-28T18:35:51;17.83;;;10.38;;
45322;SDS011;31382;50.200;8.674;2024-02-28T18:40:52;23.67;;;9.18;;
45322;SDS011;31382;50.200;8.674;2024-02-28T18:45:54;26.20;;;11.95;;
45322;SDS011;31382;50.200;8.674;2024-02-28T18:50:55;23.67;;;9.52;;
45322;SDS011;31382;50.200;8.674;2024-02-28T18:55:58;27.45;;;11.45;;
45322;SDS011;31382;50.200;8.674;2024-02-28T19:01:00;25.88;;;10.45;;
45322;SDS011;31382;50.200;8.674;2024-02-28T19:06:02;22.67;;;10.15;;
45322;SDS011;31382;50.200;8.674;2024-02-28T19:11:04;26.90;;;9.60;;
45322;SDS011;31382;50.200;8.674;2024-02-28T19:16:06;17.80;;;8.27;;
45322;SDS011;31382;50.200;8.674;2024-02-28T19:21:07;20.83;;;9.68;;
45322;SDS011;31382;50.200;8.674;2024-02-28T19:26:09;18.30;;;8.88;;
45322;SDS011;31382;50.200;8.674;2024-02-28T19:31:10;21.02;;;9.43;;
45322;SDS011;31382;50.200;8.674;2024-02-28T19:36:13;22.80;;;9.07;;
45322;SDS011;31382;50.200;8.674;2024-02-28T19:41:15;20.38;;;9.80;;
45322;SDS011;31382;50.200;8.674;2024-02-28T19:46:16;24.77;;;9.98;;
45322;SDS011;31382;50.200;8.674;2024-02-28T19:51:17;19.67;;;9.68;;
45322;SDS011;31382;50.200;8.674;2024-02-28T19:56:19;21.48;;;9.63;;
45322;SDS011;31382;50.200;8.674;2024-02-28T20:01:23;19.15;;;8.65;;
45322;SDS011;31382;50.200;8.674;2024-02-28T20:06:24;26.95;;;10.93;;
45322;SDS011;31382;50.200;8.674;2024-02-28T20:11:26;24.58;;;11.45;;
45322;SDS011;31382;50.200;8.674;2024-02-28T20:16:28;28.80;;;12.68;;
45322;SDS011;31382;50.200;8.674;2024-02-28T20:21:29;27.73;;;11.32;;
45322;SDS011;31382;50.200;8.674;2024-02-28T20:26:31;31.77;;;13.52;;
45322;SDS011;31382;50.200;8.674;2024-02-28T20:31:33;35.28;;;13.68;;
45322;SDS011;31382;50.200;8.674;2024-02-28T20:36:35;31.65;;;11.48;;
45322;SDS011;31382;50.200;8.674;2024-02-28T20:41:37;41.58;;;13.63;;
45322;SDS011;31382;50.200;8.674;2024-02-28T20:46:40;40.65;;;15.45;;
45322;SDS011;31382;50.200;8.674;2024-02-28T20:51:41;34.08;;;12.95;;
45322;SDS011;31382;50.200;8.674;2024-02-28T20:56:43;26.25;;;9.77;;
45322;SDS011;31382;50.200;8.674;2024-02-28T21:01:45;26.50;;;10.32;;
45322;SDS011;31382;50.200;8.674;2024-02-28T21:06:47;24.33;;;10.23;;
45322;SDS011;31382;50.200;8.674;2024-02-28T21:12:01;26.52;;;11.55;;
45322;SDS011;31382;50.200;8.674;2024-02-28T21:17:03;23.63;;;9.10;;
45322;SDS011;31382;50.200;8.674;2024-02-28T21:22:05;23.48;;;9.95;;
45322;SDS011;31382;50.200;8.674;2024-02-28T21:27:07;19.90;;;9.35;;
45322;SDS011;31382;50.200;8.674;2024-02-28T21:32:08;22.38;;;10.25;;
45322;SDS011;31382;50.200;8.674;2024-02-28T21:37:10;29.75;;;12.27;;
45322;SDS011;31382;50.200;8.674;2024-02-28T21:42:11;29.55;;;10.27;;
45322;SDS011;31382;50.200;8.674;2024-02-28T21:47:13;23.45;;;9.85;;
45322;SDS011;31382;50.200;8.674;2024-02-28T21:52:14;21.50;;;10.35;;
45322;SDS011;31382;50.200;8.674;2024-02-28T21:57:16;23.70;;;8.45;;
45322;SDS011;31382;50.200;8.674;2024-02-28T22:02:17;21.42;;;9.77;;
45322;SDS011;31382;50.200;8.674;2024-02-28T22:07:19;16.73;;;8.23;;
45322;SDS011;31382;50.200;8.674;2024-02-28T22:12:21;20.70;;;9.10;;
45322;SDS011;31382;50.200;8.674;2024-02-28T22:17:22;22.30;;;8.70;;
45322;SDS011;31382;50.200;8.674;2024-02-28T22:22:23;15.43;;;7.45;;
45322;SDS011;31382;50.200;8.674;2024-02-28T22:27:25;21.05;;;8.50;;
45322;SDS011;31382;50.200;8.674;2024-02-28T22:32:27;22.42;;;8.68;;
45322;SDS011;31382;50.200;8.674;2024-02-28T22:37:29;22.58;;;8.10;;
45322;SDS011;31382;50.200;8.674;2024-02-28T22:42:30;20.67;;;7.70;;
45322;SDS011;31382;50.200;8.674;2024-02-28T22:47:31;18.35;;;8.13;;
45322;SDS011;31382;50.200;8.674;2024-02-28T22:52:33;20.30;;;8.63;;
45322;SDS011;31382;50.200;8.674;2024-02-28T22:57:34;21.65;;;8.57;;
45322;SDS011;31382;50.200;8.674;2024-02-28T23:02:36;18.70;;;7.93;;
45322;SDS011;31382;50.200;8.674;2024-02-28T23:07:37;17.42;;;6.78;;
45322;SDS011;31382;50.200;8.674;2024-02-28T23:12:39;18.80;;;7.57;;
45322;SDS011;31382;50.200;8.674;2024-02-28T23:17:40;17.98;;;8.25;;
45322;SDS011;31382;50.200;8.674;2024-02-28T23:22:42;21.48;;;8.70;;
45322;SDS011;31382;50.200;8.674;2024-02-28T23:27:43;15.55;;;7.88;;
45322;SDS011;31382;50.200;8.674;2024-02-28T23:32:45;17.92;;;7.40;;
45322;SDS011;31382;50.200;8.674;2024-02-28T23:37:47;20.00;;;8.95;;
45322;SDS011;31382;50.200;8.674;2024-02-28T23:42:48;18.25;;;7.00;;
45322;SDS011;31382;50.200;8.674;2024-02-28T23:47:50;17.65;;;7.70;;
45322;SDS011;31382;50.200;8.674;2024-02-28T23:52:51;19.02;;;7.90;;
45322;SDS011;31382;50.200;8.674;2024-02-28T23:57:52;29.77;;;6.90;;
